sensor_id;sensor_type;location;lat;lon;timestamp;temperature;humidity
23323;DHT22;11833;52.554;13.554;2023-07-02T00:00:17;17.70;99.90
23323;DHT22;11833;52.554;13.554;2023-07-02T00:02:43;17.70;99.90
23323;DHT22;11833;52.554;13.554;2023-07-02T00:05:09;17.60;99.90
23323;DHT22;11833;52.554;13.554;2023-07-02T00:07:35;17.60;99.90
23323;DHT22;11833;52.554;13.554;2023-07-02T00:10:02;17.70;99.90
23323;DHT22;11833;52.554;13.554;2023-07-02T00:12:27;17.70;99.90
23323;DHT22;11833;52.554;13.554;2023-07-02T00:14:53;17.70;99.90
23323;DHT22;11833;52.554;13.554;2023-07-02T00:17:19;17.60;99.90
23323;DHT22;11833;52.554;13.554;2023-07-02T00:19:45;17.60;99.90
23323;DHT22;11833;52.554;13.554;2023-07-02T00:22:12;17.70;99.90
23323;DHT22;11833;52.554;13.554;2023-07-02T00:24:38;17.70;99.90
23323;DHT22;11833;52.554;13.554;2023-07-02T00:27:04;17.80;99.90
23323;DHT22;11833;52.554;13.554;2023-07-02T00:29:30;17.70;99.90
23323;DHT22;11833;52.554;13.554;2023-07-02T00:31:55;17.60;99.90
23323;DHT22;11833;52.554;13.554;2023-07-02T00:34:21;17.60;99.90
23323;DHT22;11833;52.554;13.554;2023-07-02T00:36:47;17.60;99.90
23323;DHT22;11833;52.554;13.554;2023-07-02T00:39:13;17.60;99.90
23323;DHT22;11833;52.554;13.554;2023-07-02T00:41:39;17.60;99.90
23323;DHT22;11833;52.554;13.554;2023-07-02T00:44:05;17.60;99.90
23323;DHT22;11833;52.554;13.554;2023-07-02T00:46:31;17.50;99.90
23323;DHT22;11833;52.554;13.554;2023-07-02T00:48:57;17.50;99.90
23323;DHT22;11833;52.554;13.554;2023-07-02T00:51:25;17.60;99.90
23323;DHT22;11833;52.554;13.554;2023-07-02T00:53:53;17.50;99.90
23323;DHT22;11833;52.554;13.554;2023-07-02T00:56:21;17.60;99.90
23323;DHT22;11833;52.554;13.554;2023-07-02T00:58:49;17.60;99.90
23323;DHT22;11833;52.554;13.554;2023-07-02T01:01:17;17.70;99.90
23323;DHT22;11833;52.554;13.554;2023-07-02T01:04:02;17.70;99.90
23323;DHT22;11833;52.554;13.554;2023-07-02T01:06:33;17.60;99.90
23323;DHT22;11833;52.554;13.554;2023-07-02T01:09:03;17.80;99.90
23323;DHT22;11833;52.554;13.554;2023-07-02T01:11:58;17.90;99.90
23323;DHT22;11833;52.554;13.554;2023-07-02T01:14:25;17.80;99.90
23323;DHT22;11833;52.554;13.554;2023-07-02T01:16:53;17.60;99.90
23323;DHT22;11833;52.554;13.554;2023-07-02T01:19:48;17.70;99.90
23323;DHT22;11833;52.554;13.554;2023-07-02T01:22:19;17.70;99.90
23323;DHT22;11833;52.554;13.554;2023-07-02T01:24:46;17.60;99.90
23323;DHT22;11833;52.554;13.554;2023-07-02T01:27:14;17.70;99.90
23323;DHT22;11833;52.554;13.554;2023-07-02T01:29:41;17.70;99.90
23323;DHT22;11833;52.554;13.554;2023-07-02T01:32:07;17.90;99.90
23323;DHT22;11833;52.554;13.554;2023-07-02T01:34:36;17.70;99.90
23323;DHT22;11833;52.554;13.554;2023-07-02T01:37:03;17.60;99.90
23323;DHT22;11833;52.554;13.554;2023-07-02T01:39:29;17.70;99.90
23323;DHT22;11833;52.554;13.554;2023-07-02T01:42:06;17.70;99.90
23323;DHT22;11833;52.554;13.554;2023-07-02T01:44:36;17.70;99.90
23323;DHT22;11833;52.554;13.554;2023-07-02T01:47:03;17.60;99.90
23323;DHT22;11833;52.554;13.554;2023-07-02T01:49:29;17.50;99.90
23323;DHT22;11833;52.554;13.554;2023-07-02T01:51:56;17.50;99.90
23323;DHT22;11833;52.554;13.554;2023-07-02T01:54:24;17.50;99.90
23323;DHT22;11833;52.554;13.554;2023-07-02T01:56:55;17.70;99.90
23323;DHT22;11833;52.554;13.554;2023-07-02T01:59:21;17.60;99.90
23323;DHT22;11833;52.554;13.554;2023-07-02T02:01:47;17.50;99.90
23323;DHT22;11833;52.554;13.554;2023-07-02T02:04:13;17.60;99.90
23323;DHT22;11833;52.554;13.554;2023-07-02T02:06:39;17.50;99.90
23323;DHT22;11833;52.554;13.554;2023-07-02T02:09:06;17.70;99.90
23323;DHT22;11833;52.554;13.554;2023-07-02T02:11:34;17.80;99.90
23323;DHT22;11833;52.554;13.554;2023-07-02T02:14:02;17.80;99.90
23323;DHT22;11833;52.554;13.554;2023-07-02T02:16:28;17.60;99.90
23323;DHT22;11833;52.554;13.554;2023-07-02T02:18:54;17.50;99.90
23323;DHT22;11833;52.554;13.554;2023-07-02T02:21:21;17.50;99.90
23323;DHT22;11833;52.554;13.554;2023-07-02T02:23:47;17.50;99.90
23323;DHT22;11833;52.554;13.554;2023-07-02T02:26:14;17.60;99.90
23323;DHT22;11833;52.554;13.554;2023-07-02T02:28:41;17.50;99.90
23323;DHT22;11833;52.554;13.554;2023-07-02T02:31:08;17.40;99.90
23323;DHT22;11833;52.554;13.554;2023-07-02T02:33:34;17.50;99.90
23323;DHT22;11833;52.554;13.554;2023-07-02T02:36:01;17.40;99.90
23323;DHT22;11833;52.554;13.554;2023-07-02T02:38:27;17.40;99.90
23323;DHT22;11833;52.554;13.554;2023-07-02T02:40:53;17.40;99.90
23323;DHT22;11833;52.554;13.554;2023-07-02T02:43:19;17.50;99.90
23323;DHT22;11833;52.554;13.554;2023-07-02T02:45:46;17.40;99.90
23323;DHT22;11833;52.554;13.554;2023-07-02T02:48:12;17.30;99.90
23323;DHT22;11833;52.554;13.554;2023-07-02T02:50:38;17.30;99.90
23323;DHT22;11833;52.554;13.554;2023-07-02T02:53:08;17.30;99.90
23323;DHT22;11833;52.554;13.554;2023-07-02T02:55:36;17.30;99.90
23323;DHT22;11833;52.554;13.554;2023-07-02T02:58:02;17.50;99.90
23323;DHT22;11833;52.554;13.554;2023-07-02T03:00:28;17.40;99.90
23323;DHT22;11833;52.554;13.554;2023-07-02T03:02:54;17.20;99.90
23323;DHT22;11833;52.554;13.554;2023-07-02T03:05:21;17.10;99.90
23323;DHT22;11833;52.554;13.554;2023-07-02T03:07:47;17.30;99.90
23323;DHT22;11833;52.554;13.554;2023-07-02T03:10:14;17.50;99.90
23323;DHT22;11833;52.554;13.554;2023-07-02T03:12:40;17.50;99.90
23323;DHT22;11833;52.554;13.554;2023-07-02T03:15:06;17.30;99.90
23323;DHT22;11833;52.554;13.554;2023-07-02T03:17:32;17.20;99.90
23323;DHT22;11833;52.554;13.554;2023-07-02T03:19:58;17.10;99.90
23323;DHT22;11833;52.554;13.554;2023-07-02T03:22:24;17.20;99.90
23323;DHT22;11833;52.554;13.554;2023-07-02T03:24:49;17.10;99.90
23323;DHT22;11833;52.554;13.554;2023-07-02T03:27:15;17.50;99.90
23323;DHT22;11833;52.554;13.554;2023-07-02T03:29:41;17.40;99.90
23323;DHT22;11833;52.554;13.554;2023-07-02T03:32:07;17.20;99.90
23323;DHT22;11833;52.554;13.554;2023-07-02T03:34:33;17.30;99.90
23323;DHT22;11833;52.554;13.554;2023-07-02T03:36:59;17.40;99.90
23323;DHT22;11833;52.554;13.554;2023-07-02T03:39:25;17.40;99.90
23323;DHT22;11833;52.554;13.554;2023-07-02T03:41:50;17.20;99.90
23323;DHT22;11833;52.554;13.554;2023-07-02T03:44:16;17.10;99.90
23323;DHT22;11833;52.554;13.554;2023-07-02T03:46:42;17.10;99.90
23323;DHT22;11833;52.554;13.554;2023-07-02T03:49:08;17.20;99.90
23323;DHT22;11833;52.554;13.554;2023-07-02T03:51:34;17.20;99.90
23323;DHT22;11833;52.554;13.554;2023-07-02T03:54:00;17.20;99.90
23323;DHT22;11833;52.554;13.554;2023-07-02T03:56:25;17.30;99.90
23323;DHT22;11833;52.554;13.554;2023-07-02T03:58:52;17.20;99.90
23323;DHT22;11833;52.554;13.554;2023-07-02T04:01:18;17.20;99.90
23323;DHT22;11833;52.554;13.554;2023-07-02T04:03:51;17.20;99.90
23323;DHT22;11833;52.554;13.554;2023-07-02T04:06:18;17.30;99.90
23323;DHT22;11833;52.554;13.554;2023-07-02T04:08:44;17.30;99.90
23323;DHT22;11833;52.554;13.554;2023-07-02T04:11:11;17.10;99.90
23323;DHT22;11833;52.554;13.554;2023-07-02T04:13:38;17.10;99.90
23323;DHT22;11833;52.554;13.554;2023-07-02T04:16:04;17.00;99.90
23323;DHT22;11833;52.554;13.554;2023-07-02T04:18:30;17.10;99.90
23323;DHT22;11833;52.554;13.554;2023-07-02T04:20:57;17.30;99.90
23323;DHT22;11833;52.554;13.554;2023-07-02T04:23:24;17.10;99.90
23323;DHT22;11833;52.554;13.554;2023-07-02T04:25:50;17.10;99.90
23323;DHT22;11833;52.554;13.554;2023-07-02T04:28:16;17.20;99.90
23323;DHT22;11833;52.554;13.554;2023-07-02T04:30:42;17.30;99.90
23323;DHT22;11833;52.554;13.554;2023-07-02T04:33:08;17.30;99.90
23323;DHT22;11833;52.554;13.554;2023-07-02T04:35:34;17.40;99.90
23323;DHT22;11833;52.554;13.554;2023-07-02T04:38:03;17.30;99.90
23323;DHT22;11833;52.554;13.554;2023-07-02T04:40:29;17.20;99.90
23323;DHT22;11833;52.554;13.554;2023-07-02T04:42:54;17.30;99.90
23323;DHT22;11833;52.554;13.554;2023-07-02T04:45:26;17.30;99.90
23323;DHT22;11833;52.554;13.554;2023-07-02T04:47:57;17.20;99.90
23323;DHT22;11833;52.554;13.554;2023-07-02T04:50:23;17.20;99.90
23323;DHT22;11833;52.554;13.554;2023-07-02T04:52:49;17.20;99.90
23323;DHT22;11833;52.554;13.554;2023-07-02T04:55:14;17.20;99.90
23323;DHT22;11833;52.554;13.554;2023-07-02T04:57:40;17.20;99.90
23323;DHT22;11833;52.554;13.554;2023-07-02T05:00:06;17.30;99.90
23323;DHT22;11833;52.554;13.554;2023-07-02T05:02:33;17.40;99.90
23323;DHT22;11833;52.554;13.554;2023-07-02T05:04:59;17.40;99.90
23323;DHT22;11833;52.554;13.554;2023-07-02T05:07:25;17.30;99.90
23323;DHT22;11833;52.554;13.554;2023-07-02T05:09:51;17.30;99.90
23323;DHT22;11833;52.554;13.554;2023-07-02T05:12:18;17.60;99.90
23323;DHT22;11833;52.554;13.554;2023-07-02T05:14:45;17.60;99.90
23323;DHT22;11833;52.554;13.554;2023-07-02T05:17:11;17.70;99.90
23323;DHT22;11833;52.554;13.554;2023-07-02T05:19:40;17.60;99.90
23323;DHT22;11833;52.554;13.554;2023-07-02T05:22:06;17.70;99.90
23323;DHT22;11833;52.554;13.554;2023-07-02T05:24:33;17.80;99.90
23323;DHT22;11833;52.554;13.554;2023-07-02T05:26:59;17.70;99.90
23323;DHT22;11833;52.554;13.554;2023-07-02T05:29:24;17.70;99.90
23323;DHT22;11833;52.554;13.554;2023-07-02T05:31:50;18.00;99.90
23323;DHT22;11833;52.554;13.554;2023-07-02T05:34:16;17.90;99.90
23323;DHT22;11833;52.554;13.554;2023-07-02T05:36:41;17.80;99.90
23323;DHT22;11833;52.554;13.554;2023-07-02T05:39:07;18.00;99.90
23323;DHT22;11833;52.554;13.554;2023-07-02T05:41:33;18.00;99.90
23323;DHT22;11833;52.554;13.554;2023-07-02T05:44:02;18.20;99.90
23323;DHT22;11833;52.554;13.554;2023-07-02T05:46:28;18.30;99.90
23323;DHT22;11833;52.554;13.554;2023-07-02T05:48:53;18.30;99.90
23323;DHT22;11833;52.554;13.554;2023-07-02T05:51:23;18.20;99.90
23323;DHT22;11833;52.554;13.554;2023-07-02T05:53:50;18.20;99.90
23323;DHT22;11833;52.554;13.554;2023-07-02T05:56:16;18.20;99.90
23323;DHT22;11833;52.554;13.554;2023-07-02T05:58:42;18.20;99.90
23323;DHT22;11833;52.554;13.554;2023-07-02T06:01:08;18.20;99.90
23323;DHT22;11833;52.554;13.554;2023-07-02T06:03:34;18.20;99.90
23323;DHT22;11833;52.554;13.554;2023-07-02T06:06:00;18.30;99.90
23323;DHT22;11833;52.554;13.554;2023-07-02T06:08:25;18.20;99.90
23323;DHT22;11833;52.554;13.554;2023-07-02T06:10:52;18.20;99.90
23323;DHT22;11833;52.554;13.554;2023-07-02T06:13:18;18.40;99.90
23323;DHT22;11833;52.554;13.554;2023-07-02T06:15:44;18.30;99.90
23323;DHT22;11833;52.554;13.554;2023-07-02T06:18:10;18.40;99.90
23323;DHT22;11833;52.554;13.554;2023-07-02T06:20:36;18.40;99.90
23323;DHT22;11833;52.554;13.554;2023-07-02T06:23:01;18.70;99.90
23323;DHT22;11833;52.554;13.554;2023-07-02T06:25:27;18.70;99.90
23323;DHT22;11833;52.554;13.554;2023-07-02T06:27:53;18.70;99.90
23323;DHT22;11833;52.554;13.554;2023-07-02T06:30:21;18.70;99.90
23323;DHT22;11833;52.554;13.554;2023-07-02T06:32:47;18.70;99.90
23323;DHT22;11833;52.554;13.554;2023-07-02T06:35:13;18.70;99.90
23323;DHT22;11833;52.554;13.554;2023-07-02T06:37:39;19.00;99.90
23323;DHT22;11833;52.554;13.554;2023-07-02T06:40:05;19.00;99.90
23323;DHT22;11833;52.554;13.554;2023-07-02T06:42:31;18.90;99.90
23323;DHT22;11833;52.554;13.554;2023-07-02T06:44:58;18.80;99.90
23323;DHT22;11833;52.554;13.554;2023-07-02T06:47:24;19.00;99.90
23323;DHT22;11833;52.554;13.554;2023-07-02T06:49:52;19.20;99.90
23323;DHT22;11833;52.554;13.554;2023-07-02T06:52:18;19.40;99.90
23323;DHT22;11833;52.554;13.554;2023-07-02T06:54:44;19.40;99.90
23323;DHT22;11833;52.554;13.554;2023-07-02T06:57:09;19.20;99.90
23323;DHT22;11833;52.554;13.554;2023-07-02T06:59:35;19.00;99.90
23323;DHT22;11833;52.554;13.554;2023-07-02T07:02:02;19.00;99.90
23323;DHT22;11833;52.554;13.554;2023-07-02T07:04:28;19.40;99.90
23323;DHT22;11833;52.554;13.554;2023-07-02T07:06:54;19.30;99.90
23323;DHT22;11833;52.554;13.554;2023-07-02T07:09:21;19.40;99.90
23323;DHT22;11833;52.554;13.554;2023-07-02T07:11:47;19.40;99.90
23323;DHT22;11833;52.554;13.554;2023-07-02T07:14:13;19.60;99.90
23323;DHT22;11833;52.554;13.554;2023-07-02T07:16:39;19.60;99.90
23323;DHT22;11833;52.554;13.554;2023-07-02T07:19:05;19.50;99.90
23323;DHT22;11833;52.554;13.554;2023-07-02T07:21:31;19.70;99.90
23323;DHT22;11833;52.554;13.554;2023-07-02T07:23:57;19.70;99.90
23323;DHT22;11833;52.554;13.554;2023-07-02T07:26:23;19.80;99.90
23323;DHT22;11833;52.554;13.554;2023-07-02T07:28:49;19.90;99.90
23323;DHT22;11833;52.554;13.554;2023-07-02T07:31:15;19.80;99.90
23323;DHT22;11833;52.554;13.554;2023-07-02T07:33:41;19.70;99.90
23323;DHT22;11833;52.554;13.554;2023-07-02T07:36:06;19.80;99.90
23323;DHT22;11833;52.554;13.554;2023-07-02T07:38:32;19.60;99.90
23323;DHT22;11833;52.554;13.554;2023-07-02T07:40:58;19.70;99.90
23323;DHT22;11833;52.554;13.554;2023-07-02T07:43:23;19.70;99.90
23323;DHT22;11833;52.554;13.554;2023-07-02T07:45:49;19.80;99.90
23323;DHT22;11833;52.554;13.554;2023-07-02T07:48:15;19.80;98.90
23323;DHT22;11833;52.554;13.554;2023-07-02T07:50:41;19.90;97.90
23323;DHT22;11833;52.554;13.554;2023-07-02T07:53:06;19.70;96.40
23323;DHT22;11833;52.554;13.554;2023-07-02T07:55:32;19.80;99.00
23323;DHT22;11833;52.554;13.554;2023-07-02T07:57:58;19.80;99.70
23323;DHT22;11833;52.554;13.554;2023-07-02T08:00:23;19.70;99.50
23323;DHT22;11833;52.554;13.554;2023-07-02T08:02:51;19.80;99.90
23323;DHT22;11833;52.554;13.554;2023-07-02T08:05:18;19.50;98.60
23323;DHT22;11833;52.554;13.554;2023-07-02T08:07:44;19.40;99.30
23323;DHT22;11833;52.554;13.554;2023-07-02T08:10:10;19.40;99.90
23323;DHT22;11833;52.554;13.554;2023-07-02T08:12:36;19.50;99.90
23323;DHT22;11833;52.554;13.554;2023-07-02T08:15:02;19.40;99.90
23323;DHT22;11833;52.554;13.554;2023-07-02T08:17:28;19.30;99.20
23323;DHT22;11833;52.554;13.554;2023-07-02T08:19:56;19.30;99.90
23323;DHT22;11833;52.554;13.554;2023-07-02T08:22:22;19.30;99.90
23323;DHT22;11833;52.554;13.554;2023-07-02T08:24:48;19.50;99.90
23323;DHT22;11833;52.554;13.554;2023-07-02T08:27:17;19.30;99.90
23323;DHT22;11833;52.554;13.554;2023-07-02T08:29:49;19.30;99.90
23323;DHT22;11833;52.554;13.554;2023-07-02T08:32:15;19.20;99.90
23323;DHT22;11833;52.554;13.554;2023-07-02T08:34:41;19.20;99.90
23323;DHT22;11833;52.554;13.554;2023-07-02T08:37:07;19.30;99.90
23323;DHT22;11833;52.554;13.554;2023-07-02T08:39:33;19.30;99.90
23323;DHT22;11833;52.554;13.554;2023-07-02T08:42:01;19.20;99.90
23323;DHT22;11833;52.554;13.554;2023-07-02T08:44:27;19.30;99.90
23323;DHT22;11833;52.554;13.554;2023-07-02T08:46:52;19.20;99.90
23323;DHT22;11833;52.554;13.554;2023-07-02T08:49:21;19.40;99.90
23323;DHT22;11833;52.554;13.554;2023-07-02T08:51:47;19.30;99.90
23323;DHT22;11833;52.554;13.554;2023-07-02T08:54:13;19.40;99.90
23323;DHT22;11833;52.554;13.554;2023-07-02T08:56:39;19.40;99.90
23323;DHT22;11833;52.554;13.554;2023-07-02T08:59:09;19.60;99.90
23323;DHT22;11833;52.554;13.554;2023-07-02T09:01:48;19.50;99.90
23323;DHT22;11833;52.554;13.554;2023-07-02T09:04:20;19.70;99.90
23323;DHT22;11833;52.554;13.554;2023-07-02T09:06:48;19.90;99.90
23323;DHT22;11833;52.554;13.554;2023-07-02T09:09:14;19.80;98.50
23323;DHT22;11833;52.554;13.554;2023-07-02T09:11:50;19.70;99.90
23323;DHT22;11833;52.554;13.554;2023-07-02T09:14:27;20.00;98.50
23323;DHT22;11833;52.554;13.554;2023-07-02T09:17:04;19.80;94.60
23323;DHT22;11833;52.554;13.554;2023-07-02T09:19:31;19.80;95.30
23323;DHT22;11833;52.554;13.554;2023-07-02T09:21:58;20.00;96.50
23323;DHT22;11833;52.554;13.554;2023-07-02T09:24:26;20.10;95.00
23323;DHT22;11833;52.554;13.554;2023-07-02T09:26:55;20.00;94.80
23323;DHT22;11833;52.554;13.554;2023-07-02T09:31:50;20.00;93.20
23323;DHT22;11833;52.554;13.554;2023-07-02T09:34:16;20.10;92.70
23323;DHT22;11833;52.554;13.554;2023-07-02T09:36:42;20.00;91.60
23323;DHT22;11833;52.554;13.554;2023-07-02T09:39:13;20.40;95.10
23323;DHT22;11833;52.554;13.554;2023-07-02T09:41:43;21.00;94.70
23323;DHT22;11833;52.554;13.554;2023-07-02T09:44:10;20.90;90.00
23323;DHT22;11833;52.554;13.554;2023-07-02T09:46:51;20.80;91.30
23323;DHT22;11833;52.554;13.554;2023-07-02T09:49:20;20.80;93.00
23323;DHT22;11833;52.554;13.554;2023-07-02T09:51:47;20.80;86.10
23323;DHT22;11833;52.554;13.554;2023-07-02T09:54:14;21.00;89.30
23323;DHT22;11833;52.554;13.554;2023-07-02T09:56:40;20.70;83.20
23323;DHT22;11833;52.554;13.554;2023-07-02T09:59:06;20.80;90.60
23323;DHT22;11833;52.554;13.554;2023-07-02T10:01:31;21.20;85.50
23323;DHT22;11833;52.554;13.554;2023-07-02T10:03:57;21.40;87.50
23323;DHT22;11833;52.554;13.554;2023-07-02T10:06:23;21.80;82.60
23323;DHT22;11833;52.554;13.554;2023-07-02T10:08:55;21.50;74.80
23323;DHT22;11833;52.554;13.554;2023-07-02T10:11:33;21.30;79.00
23323;DHT22;11833;52.554;13.554;2023-07-02T10:14:00;21.50;78.20
23323;DHT22;11833;52.554;13.554;2023-07-02T10:16:26;22.00;75.90
23323;DHT22;11833;52.554;13.554;2023-07-02T10:18:53;21.90;72.50
23323;DHT22;11833;52.554;13.554;2023-07-02T10:21:20;21.80;73.70
23323;DHT22;11833;52.554;13.554;2023-07-02T10:23:46;21.60;74.00
23323;DHT22;11833;52.554;13.554;2023-07-02T10:26:17;21.50;74.90
23323;DHT22;11833;52.554;13.554;2023-07-02T10:29:05;21.50;75.60
23323;DHT22;11833;52.554;13.554;2023-07-02T10:31:31;21.40;76.60
23323;DHT22;11833;52.554;13.554;2023-07-02T10:33:57;21.10;74.80
23323;DHT22;11833;52.554;13.554;2023-07-02T10:36:24;21.40;75.70
23323;DHT22;11833;52.554;13.554;2023-07-02T10:38:51;21.70;75.30
23323;DHT22;11833;52.554;13.554;2023-07-02T10:41:28;22.10;75.90
23323;DHT22;11833;52.554;13.554;2023-07-02T10:44:04;22.20;72.00
23323;DHT22;11833;52.554;13.554;2023-07-02T10:46:31;22.00;74.50
23323;DHT22;11833;52.554;13.554;2023-07-02T10:48:57;22.00;74.20
23323;DHT22;11833;52.554;13.554;2023-07-02T10:51:23;22.10;72.60
23323;DHT22;11833;52.554;13.554;2023-07-02T10:53:59;22.30;72.40
23323;DHT22;11833;52.554;13.554;2023-07-02T10:56:27;22.40;70.50
23323;DHT22;11833;52.554;13.554;2023-07-02T10:58:54;22.10;72.00
23323;DHT22;11833;52.554;13.554;2023-07-02T11:01:28;21.80;72.20
23323;DHT22;11833;52.554;13.554;2023-07-02T11:04:00;21.70;72.50
23323;DHT22;11833;52.554;13.554;2023-07-02T11:06:30;21.60;73.90
23323;DHT22;11833;52.554;13.554;2023-07-02T11:08:58;21.70;72.80
23323;DHT22;11833;52.554;13.554;2023-07-02T11:11:24;21.80;72.60
23323;DHT22;11833;52.554;13.554;2023-07-02T11:13:51;21.60;72.90
23323;DHT22;11833;52.554;13.554;2023-07-02T11:16:27;21.40;75.30
23323;DHT22;11833;52.554;13.554;2023-07-02T11:19:06;21.30;76.80
23323;DHT22;11833;52.554;13.554;2023-07-02T11:21:34;21.50;75.00
23323;DHT22;11833;52.554;13.554;2023-07-02T11:24:06;21.60;73.90
23323;DHT22;11833;52.554;13.554;2023-07-02T11:26:37;21.90;70.30
23323;DHT22;11833;52.554;13.554;2023-07-02T11:29:03;21.80;71.30
23323;DHT22;11833;52.554;13.554;2023-07-02T11:31:28;21.70;72.30
23323;DHT22;11833;52.554;13.554;2023-07-02T11:33:54;22.20;70.30
23323;DHT22;11833;52.554;13.554;2023-07-02T11:36:22;22.50;69.00
23323;DHT22;11833;52.554;13.554;2023-07-02T11:38:54;22.80;66.90
23323;DHT22;11833;52.554;13.554;2023-07-02T11:41:20;23.10;66.20
23323;DHT22;11833;52.554;13.554;2023-07-02T11:43:47;23.00;63.90
23323;DHT22;11833;52.554;13.554;2023-07-02T11:46:13;23.10;62.30
23323;DHT22;11833;52.554;13.554;2023-07-02T11:48:39;23.10;61.40
23323;DHT22;11833;52.554;13.554;2023-07-02T11:51:05;23.50;57.60
23323;DHT22;11833;52.554;13.554;2023-07-02T11:53:30;23.30;55.50
23323;DHT22;11833;52.554;13.554;2023-07-02T11:55:56;23.70;56.40
23323;DHT22;11833;52.554;13.554;2023-07-02T11:58:22;23.50;55.90
23323;DHT22;11833;52.554;13.554;2023-07-02T12:00:48;23.80;55.20
23323;DHT22;11833;52.554;13.554;2023-07-02T12:03:13;23.90;54.30
23323;DHT22;11833;52.554;13.554;2023-07-02T12:05:39;23.90;54.80
23323;DHT22;11833;52.554;13.554;2023-07-02T12:08:05;23.80;54.00
23323;DHT22;11833;52.554;13.554;2023-07-02T12:10:31;24.10;54.30
23323;DHT22;11833;52.554;13.554;2023-07-02T12:12:56;24.30;53.40
23323;DHT22;11833;52.554;13.554;2023-07-02T12:15:22;24.10;53.40
23323;DHT22;11833;52.554;13.554;2023-07-02T12:17:48;23.30;52.80
23323;DHT22;11833;52.554;13.554;2023-07-02T12:20:13;23.00;53.30
23323;DHT22;11833;52.554;13.554;2023-07-02T12:22:39;23.60;57.70
23323;DHT22;11833;52.554;13.554;2023-07-02T12:25:05;24.20;52.90
23323;DHT22;11833;52.554;13.554;2023-07-02T12:27:31;24.90;52.80
23323;DHT22;11833;52.554;13.554;2023-07-02T12:29:57;24.50;50.40
23323;DHT22;11833;52.554;13.554;2023-07-02T12:32:23;24.40;54.50
23323;DHT22;11833;52.554;13.554;2023-07-02T12:34:48;24.70;52.70
23323;DHT22;11833;52.554;13.554;2023-07-02T12:37:14;24.70;50.70
23323;DHT22;11833;52.554;13.554;2023-07-02T12:39:43;24.70;50.40
23323;DHT22;11833;52.554;13.554;2023-07-02T12:42:08;25.30;50.00
23323;DHT22;11833;52.554;13.554;2023-07-02T12:44:35;25.50;48.50
23323;DHT22;11833;52.554;13.554;2023-07-02T12:47:01;25.50;49.90
23323;DHT22;11833;52.554;13.554;2023-07-02T12:49:27;24.80;52.00
23323;DHT22;11833;52.554;13.554;2023-07-02T12:51:52;24.70;53.20
23323;DHT22;11833;52.554;13.554;2023-07-02T12:54:18;24.70;52.30
23323;DHT22;11833;52.554;13.554;2023-07-02T12:56:44;25.10;50.90
23323;DHT22;11833;52.554;13.554;2023-07-02T12:59:09;25.50;46.50
23323;DHT22;11833;52.554;13.554;2023-07-02T13:01:35;25.80;46.50
23323;DHT22;11833;52.554;13.554;2023-07-02T13:04:01;25.10;45.70
23323;DHT22;11833;52.554;13.554;2023-07-02T13:06:28;25.10;44.70
23323;DHT22;11833;52.554;13.554;2023-07-02T13:08:55;24.50;45.10
23323;DHT22;11833;52.554;13.554;2023-07-02T13:11:21;24.30;46.30
23323;DHT22;11833;52.554;13.554;2023-07-02T13:13:47;24.10;47.50
23323;DHT22;11833;52.554;13.554;2023-07-02T13:16:13;24.00;48.70
23323;DHT22;11833;52.554;13.554;2023-07-02T13:18:39;23.80;49.80
23323;DHT22;11833;52.554;13.554;2023-07-02T13:21:04;23.40;51.60
23323;DHT22;11833;52.554;13.554;2023-07-02T13:23:30;23.60;52.00
23323;DHT22;11833;52.554;13.554;2023-07-02T13:25:56;24.40;51.50
23323;DHT22;11833;52.554;13.554;2023-07-02T13:28:21;24.70;49.30
23323;DHT22;11833;52.554;13.554;2023-07-02T13:30:48;25.20;48.60
23323;DHT22;11833;52.554;13.554;2023-07-02T13:33:14;25.80;47.40
23323;DHT22;11833;52.554;13.554;2023-07-02T13:35:40;26.20;44.70
23323;DHT22;11833;52.554;13.554;2023-07-02T13:38:06;26.10;44.30
23323;DHT22;11833;52.554;13.554;2023-07-02T13:40:32;26.10;43.30
23323;DHT22;11833;52.554;13.554;2023-07-02T13:42:58;26.10;42.30
23323;DHT22;11833;52.554;13.554;2023-07-02T13:45:23;26.00;42.70
23323;DHT22;11833;52.554;13.554;2023-07-02T13:47:49;25.90;43.00
23323;DHT22;11833;52.554;13.554;2023-07-02T13:50:15;26.10;42.90
23323;DHT22;11833;52.554;13.554;2023-07-02T13:52:40;25.10;42.90
23323;DHT22;11833;52.554;13.554;2023-07-02T13:55:06;25.00;45.00
23323;DHT22;11833;52.554;13.554;2023-07-02T13:57:32;25.30;44.50
23323;DHT22;11833;52.554;13.554;2023-07-02T13:59:58;25.30;45.00
23323;DHT22;11833;52.554;13.554;2023-07-02T14:02:24;25.10;44.90
23323;DHT22;11833;52.554;13.554;2023-07-02T14:04:50;24.10;46.00
23323;DHT22;11833;52.554;13.554;2023-07-02T14:07:15;24.50;46.00
23323;DHT22;11833;52.554;13.554;2023-07-02T14:09:41;24.30;46.00
23323;DHT22;11833;52.554;13.554;2023-07-02T14:12:07;24.20;46.90
23323;DHT22;11833;52.554;13.554;2023-07-02T14:14:33;23.80;46.90
23323;DHT22;11833;52.554;13.554;2023-07-02T14:16:59;24.00;47.50
23323;DHT22;11833;52.554;13.554;2023-07-02T14:19:24;24.60;45.50
23323;DHT22;11833;52.554;13.554;2023-07-02T14:21:50;24.50;45.00
23323;DHT22;11833;52.554;13.554;2023-07-02T14:24:16;24.60;45.00
23323;DHT22;11833;52.554;13.554;2023-07-02T14:26:42;25.40;44.10
23323;DHT22;11833;52.554;13.554;2023-07-02T14:29:09;25.90;43.80
23323;DHT22;11833;52.554;13.554;2023-07-02T14:31:35;26.10;43.30
23323;DHT22;11833;52.554;13.554;2023-07-02T14:34:00;25.70;42.60
23323;DHT22;11833;52.554;13.554;2023-07-02T14:36:26;25.90;43.00
23323;DHT22;11833;52.554;13.554;2023-07-02T14:38:52;25.30;42.10
23323;DHT22;11833;52.554;13.554;2023-07-02T14:41:17;25.70;42.70
23323;DHT22;11833;52.554;13.554;2023-07-02T14:43:43;26.10;40.40
23323;DHT22;11833;52.554;13.554;2023-07-02T14:46:09;26.00;40.40
23323;DHT22;11833;52.554;13.554;2023-07-02T14:48:35;25.80;41.20
23323;DHT22;11833;52.554;13.554;2023-07-02T14:51:02;26.20;40.80
23323;DHT22;11833;52.554;13.554;2023-07-02T14:53:29;25.70;40.90
23323;DHT22;11833;52.554;13.554;2023-07-02T14:55:58;25.60;41.70
23323;DHT22;11833;52.554;13.554;2023-07-02T14:58:26;26.30;41.20
23323;DHT22;11833;52.554;13.554;2023-07-02T15:00:55;26.10;41.20
23323;DHT22;11833;52.554;13.554;2023-07-02T15:03:22;25.40;42.00
23323;DHT22;11833;52.554;13.554;2023-07-02T15:05:49;24.80;42.90
23323;DHT22;11833;52.554;13.554;2023-07-02T15:08:16;24.50;44.30
23323;DHT22;11833;52.554;13.554;2023-07-02T15:10:46;24.60;44.00
23323;DHT22;11833;52.554;13.554;2023-07-02T15:13:12;24.50;43.70
23323;DHT22;11833;52.554;13.554;2023-07-02T15:15:38;24.60;44.20